Texas City — WDD4983 — position and weather

sailwx.info

Track history (hours):
 
Tides and Currents Weather Stations Pressure Air Temp Water Temp Dewpoint Dewpoint Depression Visibility Wind Speed Wind Dir Waves Ship Positions

Texas City

Owner: Marathon Petroleum Company LP, Findlay, OH. More information available from US FCC via Universal Licensing System and Coast Guard Vessel Documentation Center.

Last reported at 2016-Feb-05 07:29 UTC. Time now 2016-Feb-13 21:31 UTC.
Position N 29°59' W 093°50'.
Warning: this ship's position is 8 days out of date.

Length 28 m; draft 3 m.

Type: Tug. MMSI: 367135470.

Date/timePositionNaut miles runAvg speedWind from/ knotsBaromVisibWave heightAir tempDewpointWater temp
2016-Feb-05 07:29N 29°59' W 093°50'6 7.0
2016-Feb-05 06:34N 30°03' W 093°44'6 6.3
2016-Feb-05 05:34N 30°04' W 093°37'6 5.9
2016-Feb-05 04:33N 30°04' W 093°30'6 5.9
2016-Feb-05 03:34N 30°04' W 093°23'4 4.3
2016-Feb-05 02:34N 30°06' W 093°19'3 2.8
2016-Feb-05 01:34N 30°04' W 093°16'5 5.2
2016-Feb-05 00:34N 29°60' W 093°13'6 5.9
2016-Feb-04 23:33N 29°56' W 093°08'5 5.4
2016-Feb-04 22:34N 29°56' W 093°02'0 0.2
2016-Feb-04 21:34N 29°56' W 093°02'5 4.8
2016-Feb-04 20:29N 29°56' W 092°56'107 4.4
2016-Feb-03 20:11N 29°33' W 090°55'5 7.0
2016-Feb-03 19:31N 29°32' W 090°50'6 5.9
2016-Feb-03 18:33N 29°34' W 090°44'2 1.7
2016-Feb-03 17:33N 29°35' W 090°43'4 3.9
2016-Feb-03 16:33N 29°35' W 090°38'7 6.6
2016-Feb-03 15:31N 29°34' W 090°31'  
2016-Jan-29 05:25N 29°34' W 090°23'4 5.0
2016-Jan-29 04:33N 29°33' W 090°28'5 5.4
2016-Jan-29 03:33N 29°34' W 090°34'4 4.4
2016-Jan-29 02:33N 29°36' W 090°39'3 3.3
2016-Jan-29 01:34N 29°35' W 090°43'3 3.1
2016-Jan-29 00:33N 29°33' W 090°45'113 2.2
2016-Jan-26 22:24N 29°57' W 092°52'5 5.4
2016-Jan-26 21:33N 29°56' W 092°57'5 5.4
2016-Jan-26 20:33N 29°56' W 093°04'5 5.2
2016-Jan-26 19:34N 29°56' W 093°09'5 4.9
2016-Jan-26 18:34N 29°60' W 093°13'4 4.4
2016-Jan-26 17:34N 30°04' W 093°16'4 3.8
2016-Jan-26 16:34N 30°05' W 093°20'3 2.9
2016-Jan-26 15:34N 30°04' W 093°23'4 4.3
2016-Jan-26 14:34N 30°04' W 093°28'5 5.3
2016-Jan-26 13:33N 30°04' W 093°34'6 5.6
2016-Jan-26 12:33N 30°04' W 093°40'  
Track history (hours):
 
Tides and Currents Weather Stations Pressure Air Temp Water Temp Dewpoint Dewpoint Depression Visibility Wind Speed Wind Dir Waves Ship Positions

Texas City

Owner: Marathon Petroleum Company LP, Findlay, OH. More information available from US FCC via Universal Licensing System and Coast Guard Vessel Documentation Center.

Last reported at 2016-Feb-05 07:29 UTC. Time now 2016-Feb-13 21:31 UTC.
Position N 29°59' W 093°50'.
Warning: this ship's position is 8 days out of date.

Length 28 m; draft 3 m.

Type: Tug. MMSI: 367135470.

Date/timePositionNaut miles runAvg speedWind from/ knotsBaromVisibWave heightAir tempDewpointWater temp
2016-Feb-05 07:29N 29°59' W 093°50'6 7.0
2016-Feb-05 06:34N 30°03' W 093°44'6 6.3
2016-Feb-05 05:34N 30°04' W 093°37'6 5.9
2016-Feb-05 04:33N 30°04' W 093°30'6 5.9
2016-Feb-05 03:34N 30°04' W 093°23'4 4.3
2016-Feb-05 02:34N 30°06' W 093°19'3 2.8
2016-Feb-05 01:34N 30°04' W 093°16'5 5.2
2016-Feb-05 00:34N 29°60' W 093°13'6 5.9
2016-Feb-04 23:33N 29°56' W 093°08'5 5.4
2016-Feb-04 22:34N 29°56' W 093°02'0 0.2
2016-Feb-04 21:34N 29°56' W 093°02'5 4.8
2016-Feb-04 20:29N 29°56' W 092°56'107 4.4
2016-Feb-03 20:11N 29°33' W 090°55'5 7.0
2016-Feb-03 19:31N 29°32' W 090°50'6 5.9
2016-Feb-03 18:33N 29°34' W 090°44'2 1.7
2016-Feb-03 17:33N 29°35' W 090°43'4 3.9
2016-Feb-03 16:33N 29°35' W 090°38'7 6.6
2016-Feb-03 15:31N 29°34' W 090°31'  
2016-Jan-29 05:25N 29°34' W 090°23'4 5.0
2016-Jan-29 04:33N 29°33' W 090°28'5 5.4
2016-Jan-29 03:33N 29°34' W 090°34'4 4.4
2016-Jan-29 02:33N 29°36' W 090°39'3 3.3
2016-Jan-29 01:34N 29°35' W 090°43'3 3.1
2016-Jan-29 00:33N 29°33' W 090°45'113 2.2
2016-Jan-26 22:24N 29°57' W 092°52'5 5.4
2016-Jan-26 21:33N 29°56' W 092°57'5 5.4
2016-Jan-26 20:33N 29°56' W 093°04'5 5.2
2016-Jan-26 19:34N 29°56' W 093°09'5 4.9
2016-Jan-26 18:34N 29°60' W 093°13'4 4.4
2016-Jan-26 17:34N 30°04' W 093°16'4 3.8
2016-Jan-26 16:34N 30°05' W 093°20'3 2.9
2016-Jan-26 15:34N 30°04' W 093°23'4 4.3
2016-Jan-26 14:34N 30°04' W 093°28'5 5.3
2016-Jan-26 13:33N 30°04' W 093°34'6 5.6
2016-Jan-26 12:33N 30°04' W 093°40'  

Dump ship's entire track history